sensor_id;sensor_type;location;lat;lon;timestamp;P1;durP1;ratioP1;P2;durP2;ratioP2
22298;SDS011;11317;51.072;17.036;2022-08-20T00:01:23;8.48;;;5.78;;
22298;SDS011;11317;51.072;17.036;2022-08-20T00:03:49;7.43;;;5.05;;
22298;SDS011;11317;51.072;17.036;2022-08-20T00:06:20;9.75;;;5.60;;
22298;SDS011;11317;51.072;17.036;2022-08-20T00:08:47;8.57;;;5.10;;
22298;SDS011;11317;51.072;17.036;2022-08-20T00:11:15;9.00;;;5.18;;
22298;SDS011;11317;51.072;17.036;2022-08-20T00:13:47;8.98;;;5.25;;
22298;SDS011;11317;51.072;17.036;2022-08-20T00:16:15;8.57;;;5.60;;
22298;SDS011;11317;51.072;17.036;2022-08-20T00:18:43;12.32;;;5.20;;
22298;SDS011;11317;51.072;17.036;2022-08-20T00:21:10;10.32;;;5.03;;
22298;SDS011;11317;51.072;17.036;2022-08-20T00:23:39;11.48;;;5.25;;
22298;SDS011;11317;51.072;17.036;2022-08-20T00:26:06;10.90;;;5.60;;
22298;SDS011;11317;51.072;17.036;2022-08-20T00:28:34;9.95;;;5.70;;
22298;SDS011;11317;51.072;17.036;2022-08-20T00:31:01;8.40;;;4.95;;
22298;SDS011;11317;51.072;17.036;2022-08-20T00:33:28;6.13;;;4.45;;
22298;SDS011;11317;51.072;17.036;2022-08-20T00:35:55;8.73;;;5.13;;
22298;SDS011;11317;51.072;17.036;2022-08-20T00:38:22;8.63;;;4.95;;
22298;SDS011;11317;51.072;17.036;2022-08-20T00:40:53;9.32;;;5.55;;
22298;SDS011;11317;51.072;17.036;2022-08-20T00:45:52;10.27;;;5.15;;
22298;SDS011;11317;51.072;17.036;2022-08-20T00:48:22;8.45;;;5.28;;
22298;SDS011;11317;51.072;17.036;2022-08-20T00:50:53;10.38;;;4.95;;
22298;SDS011;11317;51.072;17.036;2022-08-20T00:53:23;9.35;;;5.00;;
22298;SDS011;11317;51.072;17.036;2022-08-20T00:55:50;9.85;;;5.00;;
22298;SDS011;11317;51.072;17.036;2022-08-20T00:58:16;12.18;;;5.43;;
22298;SDS011;11317;51.072;17.036;2022-08-20T01:00:44;7.20;;;4.88;;
22298;SDS011;11317;51.072;17.036;2022-08-20T01:03:12;7.95;;;5.22;;
22298;SDS011;11317;51.072;17.036;2022-08-20T01:05:40;9.05;;;5.28;;
22298;SDS011;11317;51.072;17.036;2022-08-20T01:08:08;10.63;;;4.70;;
22298;SDS011;11317;51.072;17.036;2022-08-20T01:10:36;11.73;;;5.57;;
22298;SDS011;11317;51.072;17.036;2022-08-20T01:13:05;14.88;;;5.07;;
22298;SDS011;11317;51.072;17.036;2022-08-20T01:15:35;13.30;;;6.00;;
22298;SDS011;11317;51.072;17.036;2022-08-20T01:18:04;7.28;;;4.82;;
22298;SDS011;11317;51.072;17.036;2022-08-20T01:20:32;8.70;;;5.40;;
22298;SDS011;11317;51.072;17.036;2022-08-20T01:23:06;9.05;;;5.18;;
22298;SDS011;11317;51.072;17.036;2022-08-20T01:31:25;10.60;;;5.28;;
22298;SDS011;11317;51.072;17.036;2022-08-20T01:33:58;6.40;;;4.72;;
22298;SDS011;11317;51.072;17.036;2022-08-20T01:36:30;10.88;;;5.57;;
22298;SDS011;11317;51.072;17.036;2022-08-20T01:39:00;8.05;;;5.38;;
22298;SDS011;11317;51.072;17.036;2022-08-20T01:41:33;11.75;;;5.78;;
22298;SDS011;11317;51.072;17.036;2022-08-20T01:44:08;8.55;;;5.22;;
22298;SDS011;11317;51.072;17.036;2022-08-20T01:46:35;11.35;;;5.05;;
22298;SDS011;11317;51.072;17.036;2022-08-20T01:49:06;9.93;;;5.20;;
22298;SDS011;11317;51.072;17.036;2022-08-20T01:51:37;6.55;;;5.15;;
22298;SDS011;11317;51.072;17.036;2022-08-20T01:54:03;11.20;;;5.97;;
22298;SDS011;11317;51.072;17.036;2022-08-20T01:56:31;8.75;;;4.82;;
22298;SDS011;11317;51.072;17.036;2022-08-20T01:58:59;11.10;;;5.40;;
22298;SDS011;11317;51.072;17.036;2022-08-20T02:01:35;8.55;;;5.50;;
22298;SDS011;11317;51.072;17.036;2022-08-20T02:04:05;14.60;;;5.20;;
22298;SDS011;11317;51.072;17.036;2022-08-20T02:06:33;7.88;;;5.65;;
22298;SDS011;11317;51.072;17.036;2022-08-20T02:09:09;9.85;;;5.18;;
22298;SDS011;11317;51.072;17.036;2022-08-20T02:11:37;7.57;;;4.90;;
22298;SDS011;11317;51.072;17.036;2022-08-20T02:14:04;7.45;;;5.20;;
22298;SDS011;11317;51.072;17.036;2022-08-20T02:16:33;10.48;;;5.05;;
22298;SDS011;11317;51.072;17.036;2022-08-20T02:19:05;9.27;;;5.78;;
22298;SDS011;11317;51.072;17.036;2022-08-20T02:21:37;12.95;;;5.40;;
22298;SDS011;11317;51.072;17.036;2022-08-20T02:24:06;11.15;;;5.63;;
22298;SDS011;11317;51.072;17.036;2022-08-20T02:26:32;9.20;;;5.50;;
22298;SDS011;11317;51.072;17.036;2022-08-20T02:29:02;8.45;;;5.40;;
22298;SDS011;11317;51.072;17.036;2022-08-20T02:31:29;10.73;;;6.13;;
22298;SDS011;11317;51.072;17.036;2022-08-20T02:33:55;10.02;;;5.40;;
22298;SDS011;11317;51.072;17.036;2022-08-20T02:36:21;9.82;;;5.25;;
22298;SDS011;11317;51.072;17.036;2022-08-20T02:38:47;10.38;;;5.40;;
22298;SDS011;11317;51.072;17.036;2022-08-20T02:41:13;9.90;;;5.25;;
22298;SDS011;11317;51.072;17.036;2022-08-20T02:43:39;7.95;;;5.80;;
22298;SDS011;11317;51.072;17.036;2022-08-20T02:46:06;10.05;;;5.82;;
22298;SDS011;11317;51.072;17.036;2022-08-20T02:48:32;7.95;;;5.47;;
22298;SDS011;11317;51.072;17.036;2022-08-20T02:50:59;8.13;;;5.72;;
22298;SDS011;11317;51.072;17.036;2022-08-20T02:53:28;11.27;;;5.88;;
22298;SDS011;11317;51.072;17.036;2022-08-20T02:55:56;9.43;;;5.53;;
22298;SDS011;11317;51.072;17.036;2022-08-20T02:58:23;8.60;;;5.47;;
22298;SDS011;11317;51.072;17.036;2022-08-20T03:00:49;10.75;;;5.63;;
22298;SDS011;11317;51.072;17.036;2022-08-20T03:03:15;9.60;;;5.53;;
22298;SDS011;11317;51.072;17.036;2022-08-20T03:05:46;10.73;;;5.93;;
22298;SDS011;11317;51.072;17.036;2022-08-20T03:08:13;9.77;;;6.03;;
22298;SDS011;11317;51.072;17.036;2022-08-20T03:10:39;11.27;;;7.28;;
22298;SDS011;11317;51.072;17.036;2022-08-20T03:13:07;19.67;;;10.52;;
22298;SDS011;11317;51.072;17.036;2022-08-20T03:15:36;17.75;;;11.48;;
22298;SDS011;11317;51.072;17.036;2022-08-20T03:18:04;20.58;;;11.82;;
22298;SDS011;11317;51.072;17.036;2022-08-20T03:20:30;23.17;;;12.73;;
22298;SDS011;11317;51.072;17.036;2022-08-20T03:22:56;21.00;;;14.25;;
22298;SDS011;11317;51.072;17.036;2022-08-20T03:25:22;25.80;;;15.27;;
22298;SDS011;11317;51.072;17.036;2022-08-20T03:27:48;24.17;;;15.43;;
22298;SDS011;11317;51.072;17.036;2022-08-20T03:30:14;28.38;;;16.70;;
22298;SDS011;11317;51.072;17.036;2022-08-20T03:32:41;26.50;;;16.88;;
22298;SDS011;11317;51.072;17.036;2022-08-20T03:35:08;24.20;;;15.48;;
22298;SDS011;11317;51.072;17.036;2022-08-20T03:37:36;24.17;;;15.77;;
22298;SDS011;11317;51.072;17.036;2022-08-20T03:40:04;29.60;;;17.35;;
22298;SDS011;11317;51.072;17.036;2022-08-20T03:42:31;28.75;;;16.80;;
22298;SDS011;11317;51.072;17.036;2022-08-20T03:44:57;26.88;;;15.88;;
22298;SDS011;11317;51.072;17.036;2022-08-20T03:47:24;27.27;;;15.45;;
22298;SDS011;11317;51.072;17.036;2022-08-20T03:49:51;26.70;;;15.73;;
22298;SDS011;11317;51.072;17.036;2022-08-20T03:52:17;30.70;;;16.27;;
22298;SDS011;11317;51.072;17.036;2022-08-20T03:54:43;26.48;;;16.52;;
22298;SDS011;11317;51.072;17.036;2022-08-20T03:57:13;26.70;;;16.13;;
22298;SDS011;11317;51.072;17.036;2022-08-20T03:59:41;27.27;;;16.02;;
22298;SDS011;11317;51.072;17.036;2022-08-20T04:02:08;25.08;;;15.63;;
22298;SDS011;11317;51.072;17.036;2022-08-20T04:04:37;26.63;;;15.32;;
22298;SDS011;11317;51.072;17.036;2022-08-20T04:09:37;25.80;;;16.38;;
22298;SDS011;11317;51.072;17.036;2022-08-20T04:12:04;25.23;;;16.58;;
22298;SDS011;11317;51.072;17.036;2022-08-20T04:14:31;30.70;;;18.48;;
22298;SDS011;11317;51.072;17.036;2022-08-20T04:16:57;30.85;;;17.83;;
22298;SDS011;11317;51.072;17.036;2022-08-20T04:19:23;30.33;;;17.77;;
22298;SDS011;11317;51.072;17.036;2022-08-20T04:21:49;29.58;;;17.50;;
22298;SDS011;11317;51.072;17.036;2022-08-20T04:24:14;26.42;;;16.52;;
22298;SDS011;11317;51.072;17.036;2022-08-20T04:26:40;31.50;;;18.13;;
22298;SDS011;11317;51.072;17.036;2022-08-20T04:29:06;29.63;;;18.50;;
22298;SDS011;11317;51.072;17.036;2022-08-20T04:31:33;28.20;;;17.70;;
22298;SDS011;11317;51.072;17.036;2022-08-20T04:34:02;26.95;;;16.95;;
22298;SDS011;11317;51.072;17.036;2022-08-20T04:36:31;28.00;;;16.50;;
22298;SDS011;11317;51.072;17.036;2022-08-20T04:38:59;30.33;;;17.80;;
22298;SDS011;11317;51.072;17.036;2022-08-20T04:41:25;31.50;;;17.67;;
22298;SDS011;11317;51.072;17.036;2022-08-20T04:43:51;30.58;;;17.60;;
22298;SDS011;11317;51.072;17.036;2022-08-20T04:46:18;28.67;;;16.25;;
22298;SDS011;11317;51.072;17.036;2022-08-20T04:48:44;31.50;;;18.20;;
22298;SDS011;11317;51.072;17.036;2022-08-20T04:51:10;33.58;;;19.65;;
22298;SDS011;11317;51.072;17.036;2022-08-20T04:53:39;32.40;;;19.63;;
22298;SDS011;11317;51.072;17.036;2022-08-20T04:56:06;32.55;;;18.75;;
22298;SDS011;11317;51.072;17.036;2022-08-20T04:58:33;33.45;;;18.52;;
22298;SDS011;11317;51.072;17.036;2022-08-20T05:01:03;30.10;;;17.63;;
22298;SDS011;11317;51.072;17.036;2022-08-20T05:03:31;32.85;;;19.17;;
22298;SDS011;11317;51.072;17.036;2022-08-20T05:05:57;33.08;;;19.35;;
22298;SDS011;11317;51.072;17.036;2022-08-20T05:08:23;33.28;;;18.75;;
22298;SDS011;11317;51.072;17.036;2022-08-20T05:10:50;33.10;;;18.65;;
22298;SDS011;11317;51.072;17.036;2022-08-20T05:13:20;33.38;;;19.25;;
22298;SDS011;11317;51.072;17.036;2022-08-20T05:15:46;37.35;;;19.58;;
22298;SDS011;11317;51.072;17.036;2022-08-20T05:18:12;35.90;;;19.20;;
22298;SDS011;11317;51.072;17.036;2022-08-20T05:20:39;32.95;;;18.70;;
22298;SDS011;11317;51.072;17.036;2022-08-20T05:23:07;33.28;;;19.13;;
22298;SDS011;11317;51.072;17.036;2022-08-20T05:25:35;35.58;;;19.75;;
22298;SDS011;11317;51.072;17.036;2022-08-20T05:28:10;35.08;;;20.40;;
22298;SDS011;11317;51.072;17.036;2022-08-20T05:30:43;36.05;;;19.98;;
22298;SDS011;11317;51.072;17.036;2022-08-20T05:33:13;34.97;;;19.73;;
22298;SDS011;11317;51.072;17.036;2022-08-20T05:35:41;37.45;;;20.27;;
22298;SDS011;11317;51.072;17.036;2022-08-20T05:38:08;39.05;;;20.00;;
22298;SDS011;11317;51.072;17.036;2022-08-20T05:40:36;36.38;;;20.45;;
22298;SDS011;11317;51.072;17.036;2022-08-20T05:43:04;36.13;;;19.27;;
22298;SDS011;11317;51.072;17.036;2022-08-20T05:45:30;36.65;;;19.30;;
22298;SDS011;11317;51.072;17.036;2022-08-20T05:47:57;37.22;;;19.42;;
22298;SDS011;11317;51.072;17.036;2022-08-20T05:50:23;38.22;;;21.17;;
22298;SDS011;11317;51.072;17.036;2022-08-20T05:52:50;35.05;;;19.80;;
22298;SDS011;11317;51.072;17.036;2022-08-20T05:55:16;36.65;;;19.30;;
22298;SDS011;11317;51.072;17.036;2022-08-20T05:57:41;36.03;;;19.42;;
22298;SDS011;11317;51.072;17.036;2022-08-20T06:00:10;35.92;;;19.25;;
22298;SDS011;11317;51.072;17.036;2022-08-20T06:02:38;34.67;;;18.80;;
22298;SDS011;11317;51.072;17.036;2022-08-20T06:05:22;39.80;;;20.48;;
22298;SDS011;11317;51.072;17.036;2022-08-20T06:07:48;34.53;;;19.23;;
22298;SDS011;11317;51.072;17.036;2022-08-20T06:10:17;33.75;;;18.40;;
22298;SDS011;11317;51.072;17.036;2022-08-20T06:12:42;36.25;;;18.88;;
22298;SDS011;11317;51.072;17.036;2022-08-20T06:15:09;36.88;;;18.77;;
22298;SDS011;11317;51.072;17.036;2022-08-20T06:17:36;36.42;;;18.13;;
22298;SDS011;11317;51.072;17.036;2022-08-20T06:20:03;35.10;;;19.67;;
22298;SDS011;11317;51.072;17.036;2022-08-20T06:22:31;33.78;;;18.88;;
22298;SDS011;11317;51.072;17.036;2022-08-20T06:25:13;33.80;;;18.67;;
22298;SDS011;11317;51.072;17.036;2022-08-20T06:27:39;32.28;;;16.70;;
22298;SDS011;11317;51.072;17.036;2022-08-20T06:30:07;33.80;;;18.45;;
22298;SDS011;11317;51.072;17.036;2022-08-20T06:32:34;34.50;;;18.65;;
22298;SDS011;11317;51.072;17.036;2022-08-20T06:35:00;35.35;;;18.92;;
22298;SDS011;11317;51.072;17.036;2022-08-20T06:37:27;32.78;;;17.27;;
22298;SDS011;11317;51.072;17.036;2022-08-20T06:39:58;32.80;;;17.67;;
22298;SDS011;11317;51.072;17.036;2022-08-20T06:42:26;31.65;;;17.02;;
22298;SDS011;11317;51.072;17.036;2022-08-20T06:44:53;33.47;;;17.13;;
22298;SDS011;11317;51.072;17.036;2022-08-20T06:47:19;27.77;;;16.15;;
22298;SDS011;11317;51.072;17.036;2022-08-20T06:49:45;35.40;;;17.58;;
22298;SDS011;11317;51.072;17.036;2022-08-20T06:52:12;27.95;;;15.52;;
22298;SDS011;11317;51.072;17.036;2022-08-20T06:54:42;33.35;;;15.75;;
22298;SDS011;11317;51.072;17.036;2022-08-20T06:57:09;33.40;;;17.30;;
22298;SDS011;11317;51.072;17.036;2022-08-20T06:59:35;29.88;;;16.50;;
22298;SDS011;11317;51.072;17.036;2022-08-20T07:02:01;30.38;;;17.00;;
22298;SDS011;11317;51.072;17.036;2022-08-20T07:04:27;31.00;;;16.85;;
22298;SDS011;11317;51.072;17.036;2022-08-20T07:06:53;34.03;;;17.70;;
22298;SDS011;11317;51.072;17.036;2022-08-20T07:09:21;36.25;;;19.33;;
22298;SDS011;11317;51.072;17.036;2022-08-20T07:11:49;34.80;;;17.70;;
22298;SDS011;11317;51.072;17.036;2022-08-20T07:14:18;36.72;;;18.60;;
22298;SDS011;11317;51.072;17.036;2022-08-20T07:16:45;34.13;;;17.17;;
22298;SDS011;11317;51.072;17.036;2022-08-20T07:19:12;32.20;;;18.10;;
22298;SDS011;11317;51.072;17.036;2022-08-20T07:21:38;35.25;;;18.63;;
22298;SDS011;11317;51.072;17.036;2022-08-20T07:24:04;36.05;;;18.35;;
22298;SDS011;11317;51.072;17.036;2022-08-20T07:26:30;33.72;;;17.30;;
22298;SDS011;11317;51.072;17.036;2022-08-20T07:28:56;31.63;;;18.02;;
22298;SDS011;11317;51.072;17.036;2022-08-20T07:31:22;36.92;;;18.42;;
22298;SDS011;11317;51.072;17.036;2022-08-20T07:34:07;35.03;;;17.45;;
22298;SDS011;11317;51.072;17.036;2022-08-20T07:36:32;37.60;;;18.73;;
22298;SDS011;11317;51.072;17.036;2022-08-20T07:38:58;32.92;;;17.70;;
22298;SDS011;11317;51.072;17.036;2022-08-20T07:41:25;34.72;;;18.27;;
22298;SDS011;11317;51.072;17.036;2022-08-20T07:43:51;34.15;;;17.45;;
22298;SDS011;11317;51.072;17.036;2022-08-20T07:46:18;34.15;;;18.98;;
22298;SDS011;11317;51.072;17.036;2022-08-20T07:48:45;33.55;;;18.35;;
22298;SDS011;11317;51.072;17.036;2022-08-20T07:51:14;28.98;;;16.52;;
22298;SDS011;11317;51.072;17.036;2022-08-20T07:53:41;33.00;;;16.40;;
22298;SDS011;11317;51.072;17.036;2022-08-20T07:56:10;30.48;;;16.23;;
22298;SDS011;11317;51.072;17.036;2022-08-20T07:58:42;30.05;;;16.77;;
22298;SDS011;11317;51.072;17.036;2022-08-20T08:01:13;28.08;;;15.98;;
22298;SDS011;11317;51.072;17.036;2022-08-20T08:03:44;29.05;;;16.58;;
22298;SDS011;11317;51.072;17.036;2022-08-20T08:06:10;27.08;;;16.38;;
22298;SDS011;11317;51.072;17.036;2022-08-20T08:08:36;29.27;;;16.17;;
22298;SDS011;11317;51.072;17.036;2022-08-20T08:11:04;28.77;;;16.25;;
22298;SDS011;11317;51.072;17.036;2022-08-20T08:13:33;30.90;;;16.95;;
22298;SDS011;11317;51.072;17.036;2022-08-20T08:16:03;28.10;;;15.75;;
22298;SDS011;11317;51.072;17.036;2022-08-20T08:18:33;24.95;;;15.10;;
22298;SDS011;11317;51.072;17.036;2022-08-20T08:21:05;25.58;;;16.33;;
22298;SDS011;11317;51.072;17.036;2022-08-20T08:23:32;26.70;;;15.57;;
22298;SDS011;11317;51.072;17.036;2022-08-20T08:25:58;24.73;;;15.43;;
22298;SDS011;11317;51.072;17.036;2022-08-20T08:28:25;23.58;;;14.63;;
22298;SDS011;11317;51.072;17.036;2022-08-20T08:30:53;21.90;;;14.38;;
22298;SDS011;11317;51.072;17.036;2022-08-20T08:33:20;23.15;;;15.38;;
22298;SDS011;11317;51.072;17.036;2022-08-20T08:35:55;25.10;;;14.60;;
22298;SDS011;11317;51.072;17.036;2022-08-20T08:38:22;24.02;;;15.68;;
22298;SDS011;11317;51.072;17.036;2022-08-20T08:40:49;25.95;;;15.25;;
22298;SDS011;11317;51.072;17.036;2022-08-20T08:43:21;22.75;;;14.20;;
22298;SDS011;11317;51.072;17.036;2022-08-20T08:45:52;24.10;;;15.32;;
22298;SDS011;11317;51.072;17.036;2022-08-20T08:48:29;23.83;;;14.30;;
22298;SDS011;11317;51.072;17.036;2022-08-20T08:50:59;26.27;;;14.52;;
22298;SDS011;11317;51.072;17.036;2022-08-20T08:53:28;19.27;;;13.27;;
22298;SDS011;11317;51.072;17.036;2022-08-20T08:55:59;19.58;;;13.55;;
22298;SDS011;11317;51.072;17.036;2022-08-20T08:58:25;22.95;;;13.82;;
22298;SDS011;11317;51.072;17.036;2022-08-20T09:00:52;26.00;;;15.73;;
22298;SDS011;11317;51.072;17.036;2022-08-20T09:03:29;23.85;;;14.10;;
22298;SDS011;11317;51.072;17.036;2022-08-20T09:05:58;19.88;;;13.82;;
22298;SDS011;11317;51.072;17.036;2022-08-20T09:08:27;22.48;;;14.38;;
22298;SDS011;11317;51.072;17.036;2022-08-20T09:11:02;21.08;;;13.30;;
22298;SDS011;11317;51.072;17.036;2022-08-20T09:13:29;22.55;;;14.35;;
22298;SDS011;11317;51.072;17.036;2022-08-20T09:15:54;20.85;;;13.98;;
22298;SDS011;11317;51.072;17.036;2022-08-20T09:18:20;18.13;;;13.15;;
22298;SDS011;11317;51.072;17.036;2022-08-20T09:20:46;20.83;;;13.43;;
22298;SDS011;11317;51.072;17.036;2022-08-20T09:23:12;21.25;;;14.23;;
22298;SDS011;11317;51.072;17.036;2022-08-20T09:25:38;21.10;;;13.82;;
22298;SDS011;11317;51.072;17.036;2022-08-20T09:28:04;19.48;;;13.77;;
22298;SDS011;11317;51.072;17.036;2022-08-20T09:30:30;20.00;;;13.25;;
22298;SDS011;11317;51.072;17.036;2022-08-20T09:32:59;20.65;;;13.15;;
22298;SDS011;11317;51.072;17.036;2022-08-20T09:35:25;21.13;;;13.43;;
22298;SDS011;11317;51.072;17.036;2022-08-20T09:37:51;18.73;;;13.27;;
22298;SDS011;11317;51.072;17.036;2022-08-20T09:40:17;18.63;;;12.88;;
22298;SDS011;11317;51.072;17.036;2022-08-20T09:42:44;21.23;;;13.27;;
22298;SDS011;11317;51.072;17.036;2022-08-20T09:45:10;21.00;;;14.40;;
22298;SDS011;11317;51.072;17.036;2022-08-20T09:47:36;20.92;;;13.65;;
22298;SDS011;11317;51.072;17.036;2022-08-20T09:50:02;22.80;;;13.48;;
22298;SDS011;11317;51.072;17.036;2022-08-20T09:52:30;21.00;;;13.48;;
22298;SDS011;11317;51.072;17.036;2022-08-20T09:55:40;21.05;;;14.10;;
22298;SDS011;11317;51.072;17.036;2022-08-20T09:57:50;21.33;;;13.93;;
22298;SDS011;11317;51.072;17.036;2022-08-20T10:00:16;20.42;;;12.93;;
22298;SDS011;11317;51.072;17.036;2022-08-20T10:02:43;21.42;;;13.65;;
22298;SDS011;11317;51.072;17.036;2022-08-20T10:05:08;21.05;;;13.50;;
22298;SDS011;11317;51.072;17.036;2022-08-20T10:07:36;20.02;;;13.95;;
22298;SDS011;11317;51.072;17.036;2022-08-20T10:10:03;22.52;;;13.15;;
22298;SDS011;11317;51.072;17.036;2022-08-20T10:12:30;23.75;;;14.25;;
22298;SDS011;11317;51.072;17.036;2022-08-20T10:14:56;19.95;;;13.43;;
22298;SDS011;11317;51.072;17.036;2022-08-20T10:17:22;21.10;;;13.73;;
22298;SDS011;11317;51.072;17.036;2022-08-20T10:19:48;21.52;;;14.82;;
22298;SDS011;11317;51.072;17.036;2022-08-20T10:22:14;20.58;;;13.80;;
22298;SDS011;11317;51.072;17.036;2022-08-20T10:24:40;21.17;;;13.82;;
22298;SDS011;11317;51.072;17.036;2022-08-20T10:27:06;21.85;;;13.32;;
22298;SDS011;11317;51.072;17.036;2022-08-20T10:29:32;19.83;;;13.18;;
22298;SDS011;11317;51.072;17.036;2022-08-20T10:32:06;18.48;;;12.80;;
22298;SDS011;11317;51.072;17.036;2022-08-20T10:34:35;19.55;;;13.63;;
22298;SDS011;11317;51.072;17.036;2022-08-20T10:37:01;25.27;;;14.80;;
22298;SDS011;11317;51.072;17.036;2022-08-20T10:39:27;20.70;;;13.20;;
22298;SDS011;11317;51.072;17.036;2022-08-20T10:41:53;18.38;;;13.30;;
22298;SDS011;11317;51.072;17.036;2022-08-20T10:44:18;21.45;;;14.07;;
22298;SDS011;11317;51.072;17.036;2022-08-20T10:46:44;21.55;;;13.57;;
22298;SDS011;11317;51.072;17.036;2022-08-20T10:49:10;19.98;;;13.73;;
22298;SDS011;11317;51.072;17.036;2022-08-20T10:51:36;22.30;;;14.45;;
22298;SDS011;11317;51.072;17.036;2022-08-20T10:54:02;22.77;;;14.02;;
22298;SDS011;11317;51.072;17.036;2022-08-20T10:56:28;19.38;;;11.82;;
22298;SDS011;11317;51.072;17.036;2022-08-20T10:58:54;21.85;;;13.48;;
22298;SDS011;11317;51.072;17.036;2022-08-20T11:01:20;21.83;;;13.23;;
22298;SDS011;11317;51.072;17.036;2022-08-20T11:03:46;21.13;;;13.95;;
22298;SDS011;11317;51.072;17.036;2022-08-20T11:06:12;25.20;;;14.43;;
22298;SDS011;11317;51.072;17.036;2022-08-20T11:08:38;21.52;;;14.25;;
22298;SDS011;11317;51.072;17.036;2022-08-20T11:11:04;18.83;;;13.25;;
22298;SDS011;11317;51.072;17.036;2022-08-20T11:13:31;25.55;;;13.40;;
22298;SDS011;11317;51.072;17.036;2022-08-20T11:15:58;22.08;;;14.27;;
22298;SDS011;11317;51.072;17.036;2022-08-20T11:18:25;21.52;;;13.80;;
22298;SDS011;11317;51.072;17.036;2022-08-20T11:20:51;20.80;;;13.73;;
22298;SDS011;11317;51.072;17.036;2022-08-20T11:23:17;20.98;;;13.20;;
22298;SDS011;11317;51.072;17.036;2022-08-20T11:25:43;21.95;;;13.43;;
22298;SDS011;11317;51.072;17.036;2022-08-20T11:28:09;20.17;;;13.65;;
22298;SDS011;11317;51.072;17.036;2022-08-20T11:30:36;23.25;;;14.05;;
22298;SDS011;11317;51.072;17.036;2022-08-20T11:33:02;21.33;;;13.25;;
22298;SDS011;11317;51.072;17.036;2022-08-20T11:35:29;21.70;;;13.20;;
22298;SDS011;11317;51.072;17.036;2022-08-20T11:37:57;20.40;;;13.05;;
22298;SDS011;11317;51.072;17.036;2022-08-20T11:40:24;22.75;;;13.70;;
22298;SDS011;11317;51.072;17.036;2022-08-20T11:42:50;21.98;;;13.27;;
22298;SDS011;11317;51.072;17.036;2022-08-20T11:45:16;24.73;;;14.30;;
22298;SDS011;11317;51.072;17.036;2022-08-20T11:47:42;18.23;;;12.75;;
22298;SDS011;11317;51.072;17.036;2022-08-20T11:50:11;21.63;;;13.20;;
22298;SDS011;11317;51.072;17.036;2022-08-20T11:52:38;22.98;;;14.40;;
22298;SDS011;11317;51.072;17.036;2022-08-20T11:55:05;20.52;;;13.27;;
22298;SDS011;11317;51.072;17.036;2022-08-20T11:57:33;19.65;;;12.52;;
22298;SDS011;11317;51.072;17.036;2022-08-20T12:00:00;18.23;;;12.23;;
22298;SDS011;11317;51.072;17.036;2022-08-20T12:02:29;19.88;;;13.07;;
22298;SDS011;11317;51.072;17.036;2022-08-20T12:04:55;21.83;;;13.13;;
22298;SDS011;11317;51.072;17.036;2022-08-20T12:07:22;20.83;;;13.23;;
22298;SDS011;11317;51.072;17.036;2022-08-20T12:09:49;20.92;;;13.93;;
22298;SDS011;11317;51.072;17.036;2022-08-20T12:12:15;19.52;;;13.43;;
22298;SDS011;11317;51.072;17.036;2022-08-20T12:14:43;17.33;;;11.82;;
22298;SDS011;11317;51.072;17.036;2022-08-20T12:17:09;21.35;;;12.50;;
22298;SDS011;11317;51.072;17.036;2022-08-20T12:19:37;21.30;;;11.77;;
22298;SDS011;11317;51.072;17.036;2022-08-20T12:22:04;23.83;;;12.57;;
22298;SDS011;11317;51.072;17.036;2022-08-20T12:24:30;19.55;;;11.90;;
22298;SDS011;11317;51.072;17.036;2022-08-20T12:27:06;19.38;;;12.50;;
22298;SDS011;11317;51.072;17.036;2022-08-20T12:29:35;20.55;;;12.43;;
22298;SDS011;11317;51.072;17.036;2022-08-20T12:32:03;16.75;;;12.10;;
22298;SDS011;11317;51.072;17.036;2022-08-20T12:34:31;21.17;;;13.65;;
22298;SDS011;11317;51.072;17.036;2022-08-20T12:37:00;20.58;;;11.80;;
22298;SDS011;11317;51.072;17.036;2022-08-20T12:39:29;19.95;;;12.50;;
22298;SDS011;11317;51.072;17.036;2022-08-20T12:41:57;18.90;;;13.05;;
22298;SDS011;11317;51.072;17.036;2022-08-20T12:44:23;19.35;;;11.27;;
22298;SDS011;11317;51.072;17.036;2022-08-20T12:46:49;18.88;;;11.20;;
22298;SDS011;11317;51.072;17.036;2022-08-20T12:49:15;20.00;;;12.63;;
22298;SDS011;11317;51.072;17.036;2022-08-20T12:51:41;20.88;;;12.13;;
22298;SDS011;11317;51.072;17.036;2022-08-20T12:54:07;20.98;;;13.50;;
22298;SDS011;11317;51.072;17.036;2022-08-20T12:56:32;17.38;;;12.10;;
22298;SDS011;11317;51.072;17.036;2022-08-20T12:58:58;18.90;;;12.25;;
22298;SDS011;11317;51.072;17.036;2022-08-20T13:01:24;17.92;;;12.25;;
22298;SDS011;11317;51.072;17.036;2022-08-20T13:03:50;17.38;;;11.90;;
22298;SDS011;11317;51.072;17.036;2022-08-20T13:06:18;17.75;;;11.63;;
22298;SDS011;11317;51.072;17.036;2022-08-20T13:08:44;17.65;;;11.88;;
22298;SDS011;11317;51.072;17.036;2022-08-20T13:11:10;16.95;;;11.38;;
22298;SDS011;11317;51.072;17.036;2022-08-20T13:13:36;18.92;;;11.07;;
22298;SDS011;11317;51.072;17.036;2022-08-20T13:16:02;16.63;;;11.52;;
22298;SDS011;11317;51.072;17.036;2022-08-20T13:18:28;17.70;;;11.07;;
22298;SDS011;11317;51.072;17.036;2022-08-20T13:20:54;16.38;;;11.55;;
22298;SDS011;11317;51.072;17.036;2022-08-20T13:23:20;17.08;;;11.30;;
22298;SDS011;11317;51.072;17.036;2022-08-20T13:25:46;14.60;;;10.70;;
22298;SDS011;11317;51.072;17.036;2022-08-20T13:28:12;17.75;;;11.05;;
22298;SDS011;11317;51.072;17.036;2022-08-20T13:30:38;17.85;;;10.50;;
22298;SDS011;11317;51.072;17.036;2022-08-20T13:33:05;15.80;;;11.10;;
22298;SDS011;11317;51.072;17.036;2022-08-20T13:35:31;17.38;;;11.02;;
22298;SDS011;11317;51.072;17.036;2022-08-20T13:37:57;15.73;;;10.80;;
22298;SDS011;11317;51.072;17.036;2022-08-20T13:40:23;16.85;;;10.50;;
22298;SDS011;11317;51.072;17.036;2022-08-20T13:42:49;19.58;;;11.18;;
22298;SDS011;11317;51.072;17.036;2022-08-20T13:45:15;18.05;;;10.88;;
22298;SDS011;11317;51.072;17.036;2022-08-20T13:47:41;17.48;;;9.85;;
22298;SDS011;11317;51.072;17.036;2022-08-20T13:50:12;18.65;;;10.45;;
22298;SDS011;11317;51.072;17.036;2022-08-20T13:52:41;13.63;;;9.57;;
22298;SDS011;11317;51.072;17.036;2022-08-20T13:55:08;15.25;;;9.80;;
22298;SDS011;11317;51.072;17.036;2022-08-20T13:57:35;14.07;;;9.63;;
22298;SDS011;11317;51.072;17.036;2022-08-20T14:00:02;16.85;;;10.18;;
22298;SDS011;11317;51.072;17.036;2022-08-20T14:02:31;16.35;;;10.30;;
22298;SDS011;11317;51.072;17.036;2022-08-20T14:04:57;14.68;;;10.23;;
22298;SDS011;11317;51.072;17.036;2022-08-20T14:07:23;15.88;;;10.07;;
22298;SDS011;11317;51.072;17.036;2022-08-20T14:09:54;16.25;;;9.50;;
22298;SDS011;11317;51.072;17.036;2022-08-20T14:12:56;14.27;;;9.70;;
22298;SDS011;11317;51.072;17.036;2022-08-20T14:15:22;14.20;;;8.60;;
22298;SDS011;11317;51.072;17.036;2022-08-20T14:17:49;13.43;;;8.80;;
22298;SDS011;11317;51.072;17.036;2022-08-20T14:20:18;13.15;;;9.15;;
22298;SDS011;11317;51.072;17.036;2022-08-20T14:22:45;13.98;;;9.05;;
22298;SDS011;11317;51.072;17.036;2022-08-20T14:25:12;13.77;;;9.80;;
22298;SDS011;11317;51.072;17.036;2022-08-20T14:27:39;14.75;;;8.85;;